Airfield :
LOGIN :

Register | Disclaimer

   EN    FR    IT 

 










Legend :    VFR   Marginal VFR   IFR   Intensive IFR   Very Intensive IFR
Visi :
Ceiling :
>= 8 km
>= 3000ft
5 to 8 km
1000 to 3000 ft
1500m to 5 km
500 to 1000 ft
800 to 1500m
200 to 500 ft
< 800m
< 200 ft
Symbols :   Thunderstorms  Fog  Heavy snow  Heavy precipitations  Wind > 20 kt
SIGMETs :     Misc.  Thunderstorms  Icing  Turbulence  Mountain Waves  Volcanic Ashes






- Airport Elevation : 160 ft
- IATA code : FMO


EDDG - Münster Osnabrück Int.

CURRENT METAR :
  • 040820Z 30004KT 240V030 9999 FEW020 18/12 Q1016 NOSIG

EXPIRED METARs :
  • 040750Z 25005KT 190V310 9999 FEW014 18/13 Q1016 NOSIG
  • 040720Z 23003KT 180V310 9999 FEW025 17/13 Q1016 NOSIG
  • 040650Z VRB01KT 9999 FEW025 15/13 Q1016 NOSIG
  • 040620Z VRB02KT 1800 BR FEW001 13/12 Q1016 BECMG 9999
  • 040550Z VRB02KT 0900 R25/1800N FG FEW001 12/12 Q1016 BECMG 3000 BR

TAF TAF EDDG
Valid from the 04 at 06:00 until the 05 at 06:00 UTC


040500Z 0406/0506 VRB02KT 0400 FG BKN001
BECMG 0406/0408 29006KT 9999 SCT020
BECMG 0418/0420 VRB02KT



MET'MAP, your aeronautical weather chart ! - Copyright ORBIFLY December 2007 - Disclaimer

ORBIFLY MET'MAP TEAM :

Programming & Development : Alexandra Zaïnal
Concept & original design : Baudouin d'Aumeries
Assistance for programming : Marc-Olivier Méhu
Technical & hardware support : Manuel Goepfert

Contact : metmap@orbifly.com




SOURCES & CREDITS :

   NOAA